<?xml version="1.0" encoding="UTF-8" standalone="no" ?>
<gpx xmlns="http://www.topografix.com/GPX/1/1" xmlns:xsi="http://www.w3.org/2001/XMLSchema-instance" xsi:schemaLocation="http://www.topografix.com/GPX/1/1 http://www.topografix.com/GPX/1/1/gpx.xsd" version="1.1" creator="VisuGPX - https://www.visugpx.com">
  <metadata>
    <name>3-1-A Aljezur Zambujeira 40km eurovélo</name>
    <desc><![CDATA[parcours eurovélo
]]></desc>
  </metadata>
  <trk>
    <name><![CDATA[EuroVelo 1 - Section 05 on GPSies.com]]></name>
    <trkseg>
      <trkpt lat="37.31853" lon="-8.80435">
        <ele>42</ele>
        <time>2010-01-01T00:00:00Z</time>
      </trkpt>
      <trkpt lat="37.3189" lon="-8.80423">
        <ele>37</ele>
        <time>2010-01-01T00:00:10Z</time>
      </trkpt>
      <trkpt lat="37.31907" lon="-8.80402">
        <ele>38</ele>
        <time>2010-01-01T00:00:16Z</time>
      </trkpt>
      <trkpt lat="37.3193" lon="-8.80384">
        <ele>39</ele>
        <time>2010-01-01T00:00:23Z</time>
      </trkpt>
      <trkpt lat="37.31946" lon="-8.80361">
        <ele>40</ele>
        <time>2010-01-01T00:00:30Z</time>
      </trkpt>
      <trkpt lat="37.31953" lon="-8.8034">
        <ele>38</ele>
        <time>2010-01-01T00:00:34Z</time>
      </trkpt>
      <trkpt lat="37.31982" lon="-8.80299">
        <ele>34</ele>
        <time>2010-01-01T00:00:46Z</time>
      </trkpt>
      <trkpt lat="37.32005" lon="-8.80295">
        <ele>34</ele>
        <time>2010-01-01T00:00:52Z</time>
      </trkpt>
      <trkpt lat="37.32056" lon="-8.80279">
        <ele>32</ele>
        <time>2010-01-01T00:01:06Z</time>
      </trkpt>
      <trkpt lat="37.32093" lon="-8.80263">
        <ele>31</ele>
        <time>2010-01-01T00:01:17Z</time>
      </trkpt>
      <trkpt lat="37.32197" lon="-8.80263">
        <ele>31</ele>
        <time>2010-01-01T00:01:45Z</time>
      </trkpt>
      <trkpt lat="37.32232" lon="-8.80261">
        <ele>28</ele>
        <time>2010-01-01T00:01:54Z</time>
      </trkpt>
      <trkpt lat="37.32295" lon="-8.80302">
        <ele>25</ele>
        <time>2010-01-01T00:02:13Z</time>
      </trkpt>
      <trkpt lat="37.32312" lon="-8.80302">
        <ele>19</ele>
        <time>2010-01-01T00:02:17Z</time>
      </trkpt>
      <trkpt lat="37.32325" lon="-8.80294">
        <ele>13</ele>
        <time>2010-01-01T00:02:21Z</time>
      </trkpt>
      <trkpt lat="37.32371" lon="-8.80299">
        <ele>8</ele>
        <time>2010-01-01T00:02:34Z</time>
      </trkpt>
      <trkpt lat="37.32402" lon="-8.80311">
        <ele>8</ele>
        <time>2010-01-01T00:02:42Z</time>
      </trkpt>
      <trkpt lat="37.32421" lon="-8.80322">
        <ele>8</ele>
        <time>2010-01-01T00:02:48Z</time>
      </trkpt>
      <trkpt lat="37.32458" lon="-8.80344">
        <ele>7</ele>
        <time>2010-01-01T00:02:59Z</time>
      </trkpt>
      <trkpt lat="37.32489" lon="-8.80346">
        <ele>7</ele>
        <time>2010-01-01T00:03:07Z</time>
      </trkpt>
      <trkpt lat="37.32503" lon="-8.80339">
        <ele>7</ele>
        <time>2010-01-01T00:03:11Z</time>
      </trkpt>
      <trkpt lat="37.32522" lon="-8.80354">
        <ele>9</ele>
        <time>2010-01-01T00:03:17Z</time>
      </trkpt>
      <trkpt lat="37.32535" lon="-8.80374">
        <ele>11</ele>
        <time>2010-01-01T00:03:23Z</time>
      </trkpt>
      <trkpt lat="37.32563" lon="-8.80418">
        <ele>15</ele>
        <time>2010-01-01T00:03:35Z</time>
      </trkpt>
      <trkpt lat="37.32588" lon="-8.80452">
        <ele>19</ele>
        <time>2010-01-01T00:03:44Z</time>
      </trkpt>
      <trkpt lat="37.32617" lon="-8.80482">
        <ele>24</ele>
        <time>2010-01-01T00:03:54Z</time>
      </trkpt>
      <trkpt lat="37.32657" lon="-8.80512">
        <ele>28</ele>
        <time>2010-01-01T00:04:07Z</time>
      </trkpt>
      <trkpt lat="37.32696" lon="-8.80531">
        <ele>29</ele>
        <time>2010-01-01T00:04:18Z</time>
      </trkpt>
      <trkpt lat="37.32728" lon="-8.80544">
        <ele>33</ele>
        <time>2010-01-01T00:04:27Z</time>
      </trkpt>
      <trkpt lat="37.32763" lon="-8.80555">
        <ele>37</ele>
        <time>2010-01-01T00:04:37Z</time>
      </trkpt>
      <trkpt lat="37.32788" lon="-8.80559">
        <ele>41</ele>
        <time>2010-01-01T00:04:43Z</time>
      </trkpt>
      <trkpt lat="37.32833" lon="-8.80564">
        <ele>47</ele>
        <time>2010-01-01T00:04:56Z</time>
      </trkpt>
      <trkpt lat="37.32856" lon="-8.80566">
        <ele>52</ele>
        <time>2010-01-01T00:05:02Z</time>
      </trkpt>
      <trkpt lat="37.32882" lon="-8.80561">
        <ele>58</ele>
        <time>2010-01-01T00:05:09Z</time>
      </trkpt>
      <trkpt lat="37.32904" lon="-8.80555">
        <ele>63</ele>
        <time>2010-01-01T00:05:14Z</time>
      </trkpt>
      <trkpt lat="37.32932" lon="-8.80563">
        <ele>69</ele>
        <time>2010-01-01T00:05:22Z</time>
      </trkpt>
      <trkpt lat="37.32943" lon="-8.80575">
        <ele>69</ele>
        <time>2010-01-01T00:05:26Z</time>
      </trkpt>
      <trkpt lat="37.32965" lon="-8.80593">
        <ele>76</ele>
        <time>2010-01-01T00:05:33Z</time>
      </trkpt>
      <trkpt lat="37.32985" lon="-8.80608">
        <ele>82</ele>
        <time>2010-01-01T00:05:39Z</time>
      </trkpt>
      <trkpt lat="37.33025" lon="-8.80637">
        <ele>92</ele>
        <time>2010-01-01T00:05:52Z</time>
      </trkpt>
      <trkpt lat="37.33065" lon="-8.80667">
        <ele>103</ele>
        <time>2010-01-01T00:06:04Z</time>
      </trkpt>
      <trkpt lat="37.33104" lon="-8.80697">
        <ele>111</ele>
        <time>2010-01-01T00:06:16Z</time>
      </trkpt>
      <trkpt lat="37.33144" lon="-8.80727">
        <ele>115</ele>
        <time>2010-01-01T00:06:29Z</time>
      </trkpt>
      <trkpt lat="37.33184" lon="-8.80756">
        <ele>114</ele>
        <time>2010-01-01T00:06:41Z</time>
      </trkpt>
      <trkpt lat="37.33224" lon="-8.80786">
        <ele>112</ele>
        <time>2010-01-01T00:06:53Z</time>
      </trkpt>
      <trkpt lat="37.33272" lon="-8.80815">
        <ele>106</ele>
        <time>2010-01-01T00:07:08Z</time>
      </trkpt>
      <trkpt lat="37.3329" lon="-8.80825">
        <ele>107</ele>
        <time>2010-01-01T00:07:13Z</time>
      </trkpt>
      <trkpt lat="37.3332" lon="-8.80834">
        <ele>109</ele>
        <time>2010-01-01T00:07:21Z</time>
      </trkpt>
      <trkpt lat="37.3334" lon="-8.80838">
        <ele>109</ele>
        <time>2010-01-01T00:07:27Z</time>
      </trkpt>
      <trkpt lat="37.33359" lon="-8.80841">
        <ele>109</ele>
        <time>2010-01-01T00:07:32Z</time>
      </trkpt>
      <trkpt lat="37.33391" lon="-8.80852">
        <ele>109</ele>
        <time>2010-01-01T00:07:41Z</time>
      </trkpt>
      <trkpt lat="37.33424" lon="-8.80868">
        <ele>110</ele>
        <time>2010-01-01T00:07:50Z</time>
      </trkpt>
      <trkpt lat="37.33448" lon="-8.80868">
        <ele>109</ele>
        <time>2010-01-01T00:07:57Z</time>
      </trkpt>
      <trkpt lat="37.33471" lon="-8.80868">
        <ele>108</ele>
        <time>2010-01-01T00:08:03Z</time>
      </trkpt>
      <trkpt lat="37.33512" lon="-8.80865">
        <ele>106</ele>
        <time>2010-01-01T00:08:13Z</time>
      </trkpt>
      <trkpt lat="37.33551" lon="-8.80861">
        <ele>106</ele>
        <time>2010-01-01T00:08:24Z</time>
      </trkpt>
      <trkpt lat="37.33627" lon="-8.80851">
        <ele>108</ele>
        <time>2010-01-01T00:08:44Z</time>
      </trkpt>
      <trkpt lat="37.33681" lon="-8.80837">
        <ele>110</ele>
        <time>2010-01-01T00:08:59Z</time>
      </trkpt>
      <trkpt lat="37.33748" lon="-8.80815">
        <ele>111</ele>
        <time>2010-01-01T00:09:18Z</time>
      </trkpt>
      <trkpt lat="37.3379" lon="-8.80788">
        <ele>112</ele>
        <time>2010-01-01T00:09:30Z</time>
      </trkpt>
      <trkpt lat="37.33831" lon="-8.8076">
        <ele>113</ele>
        <time>2010-01-01T00:09:43Z</time>
      </trkpt>
      <trkpt lat="37.3388" lon="-8.80726">
        <ele>114</ele>
        <time>2010-01-01T00:09:58Z</time>
      </trkpt>
      <trkpt lat="37.33911" lon="-8.80695">
        <ele>112</ele>
        <time>2010-01-01T00:10:08Z</time>
      </trkpt>
      <trkpt lat="37.33942" lon="-8.80638">
        <ele>111</ele>
        <time>2010-01-01T00:10:23Z</time>
      </trkpt>
      <trkpt lat="37.33973" lon="-8.80568">
        <ele>113</ele>
        <time>2010-01-01T00:10:40Z</time>
      </trkpt>
      <trkpt lat="37.34001" lon="-8.80504">
        <ele>115</ele>
        <time>2010-01-01T00:10:55Z</time>
      </trkpt>
      <trkpt lat="37.3403" lon="-8.80438">
        <ele>116</ele>
        <time>2010-01-01T00:11:11Z</time>
      </trkpt>
      <trkpt lat="37.34062" lon="-8.80363">
        <ele>117</ele>
        <time>2010-01-01T00:11:29Z</time>
      </trkpt>
      <trkpt lat="37.34073" lon="-8.80339">
        <ele>117</ele>
        <time>2010-01-01T00:11:35Z</time>
      </trkpt>
      <trkpt lat="37.34079" lon="-8.80304">
        <ele>118</ele>
        <time>2010-01-01T00:11:43Z</time>
      </trkpt>
      <trkpt lat="37.34089" lon="-8.8022">
        <ele>117</ele>
        <time>2010-01-01T00:12:01Z</time>
      </trkpt>
      <trkpt lat="37.34094" lon="-8.80155">
        <ele>118</ele>
        <time>2010-01-01T00:12:15Z</time>
      </trkpt>
      <trkpt lat="37.34111" lon="-8.80135">
        <ele>118</ele>
        <time>2010-01-01T00:12:21Z</time>
      </trkpt>
      <trkpt lat="37.34144" lon="-8.80134">
        <ele>117</ele>
        <time>2010-01-01T00:12:30Z</time>
      </trkpt>
      <trkpt lat="37.3417" lon="-8.80135">
        <ele>116</ele>
        <time>2010-01-01T00:12:37Z</time>
      </trkpt>
      <trkpt lat="37.34216" lon="-8.80145">
        <ele>117</ele>
        <time>2010-01-01T00:12:49Z</time>
      </trkpt>
      <trkpt lat="37.3425" lon="-8.80162">
        <ele>118</ele>
        <time>2010-01-01T00:12:59Z</time>
      </trkpt>
      <trkpt lat="37.3426" lon="-8.80174">
        <ele>118</ele>
        <time>2010-01-01T00:13:02Z</time>
      </trkpt>
      <trkpt lat="37.34272" lon="-8.80193">
        <ele>118</ele>
        <time>2010-01-01T00:13:07Z</time>
      </trkpt>
      <trkpt lat="37.34292" lon="-8.80213">
        <ele>117</ele>
        <time>2010-01-01T00:13:14Z</time>
      </trkpt>
      <trkpt lat="37.3453" lon="-8.80442">
        <ele>109</ele>
        <time>2010-01-01T00:14:34Z</time>
      </trkpt>
      <trkpt lat="37.34773" lon="-8.80677">
        <ele>107</ele>
        <time>2010-01-01T00:15:56Z</time>
      </trkpt>
      <trkpt lat="37.34951" lon="-8.80848">
        <ele>103</ele>
        <time>2010-01-01T00:16:56Z</time>
      </trkpt>
      <trkpt lat="37.34979" lon="-8.80887">
        <ele>103</ele>
        <time>2010-01-01T00:17:07Z</time>
      </trkpt>
      <trkpt lat="37.34998" lon="-8.80909">
        <ele>104</ele>
        <time>2010-01-01T00:17:14Z</time>
      </trkpt>
      <trkpt lat="37.35053" lon="-8.80949">
        <ele>103</ele>
        <time>2010-01-01T00:17:31Z</time>
      </trkpt>
      <trkpt lat="37.35125" lon="-8.81015">
        <ele>100</ele>
        <time>2010-01-01T00:17:55Z</time>
      </trkpt>
      <trkpt lat="37.35177" lon="-8.81083">
        <ele>99</ele>
        <time>2010-01-01T00:18:15Z</time>
      </trkpt>
      <trkpt lat="37.35203" lon="-8.81089">
        <ele>99</ele>
        <time>2010-01-01T00:18:22Z</time>
      </trkpt>
      <trkpt lat="37.35287" lon="-8.81091">
        <ele>99</ele>
        <time>2010-01-01T00:18:44Z</time>
      </trkpt>
      <trkpt lat="37.35309" lon="-8.81097">
        <ele>98</ele>
        <time>2010-01-01T00:18:50Z</time>
      </trkpt>
      <trkpt lat="37.354" lon="-8.8118">
        <ele>97</ele>
        <time>2010-01-01T00:19:20Z</time>
      </trkpt>
      <trkpt lat="37.35573" lon="-8.81386">
        <ele>90</ele>
        <time>2010-01-01T00:20:24Z</time>
      </trkpt>
      <trkpt lat="37.35605" lon="-8.81411">
        <ele>90</ele>
        <time>2010-01-01T00:20:34Z</time>
      </trkpt>
      <trkpt lat="37.35623" lon="-8.81451">
        <ele>89</ele>
        <time>2010-01-01T00:20:44Z</time>
      </trkpt>
      <trkpt lat="37.35646" lon="-8.81527">
        <ele>87</ele>
        <time>2010-01-01T00:21:01Z</time>
      </trkpt>
      <trkpt lat="37.35661" lon="-8.81502">
        <ele>87</ele>
        <time>2010-01-01T00:21:08Z</time>
      </trkpt>
      <trkpt lat="37.35812" lon="-8.81351">
        <ele>87</ele>
        <time>2010-01-01T00:21:59Z</time>
      </trkpt>
      <trkpt lat="37.36931" lon="-8.8022">
        <ele>94</ele>
        <time>2010-01-01T00:28:22Z</time>
      </trkpt>
      <trkpt lat="37.36941" lon="-8.80359">
        <ele>91</ele>
        <time>2010-01-01T00:28:52Z</time>
      </trkpt>
      <trkpt lat="37.36944" lon="-8.80506">
        <ele>88</ele>
        <time>2010-01-01T00:29:23Z</time>
      </trkpt>
      <trkpt lat="37.36967" lon="-8.80641">
        <ele>85</ele>
        <time>2010-01-01T00:29:52Z</time>
      </trkpt>
      <trkpt lat="37.36981" lon="-8.8071">
        <ele>82</ele>
        <time>2010-01-01T00:30:07Z</time>
      </trkpt>
      <trkpt lat="37.37044" lon="-8.80813">
        <ele>80</ele>
        <time>2010-01-01T00:30:35Z</time>
      </trkpt>
      <trkpt lat="37.37097" lon="-8.80924">
        <ele>79</ele>
        <time>2010-01-01T00:31:02Z</time>
      </trkpt>
      <trkpt lat="37.37173" lon="-8.81004">
        <ele>78</ele>
        <time>2010-01-01T00:31:29Z</time>
      </trkpt>
      <trkpt lat="37.3728" lon="-8.81063">
        <ele>76</ele>
        <time>2010-01-01T00:32:00Z</time>
      </trkpt>
      <trkpt lat="37.37355" lon="-8.81121">
        <ele>74</ele>
        <time>2010-01-01T00:32:23Z</time>
      </trkpt>
      <trkpt lat="37.37391" lon="-8.81128">
        <ele>74</ele>
        <time>2010-01-01T00:32:33Z</time>
      </trkpt>
      <trkpt lat="37.37435" lon="-8.81041">
        <ele>76</ele>
        <time>2010-01-01T00:32:55Z</time>
      </trkpt>
      <trkpt lat="37.37542" lon="-8.80936">
        <ele>78</ele>
        <time>2010-01-01T00:33:31Z</time>
      </trkpt>
      <trkpt lat="37.37675" lon="-8.80833">
        <ele>79</ele>
        <time>2010-01-01T00:34:13Z</time>
      </trkpt>
      <trkpt lat="37.37796" lon="-8.80709">
        <ele>79</ele>
        <time>2010-01-01T00:34:55Z</time>
      </trkpt>
      <trkpt lat="37.37828" lon="-8.80617">
        <ele>77</ele>
        <time>2010-01-01T00:35:16Z</time>
      </trkpt>
      <trkpt lat="37.38001" lon="-8.80399">
        <ele>80</ele>
        <time>2010-01-01T00:36:21Z</time>
      </trkpt>
      <trkpt lat="37.38233" lon="-8.80605">
        <ele>74</ele>
        <time>2010-01-01T00:37:37Z</time>
      </trkpt>
      <trkpt lat="37.38233" lon="-8.80683">
        <ele>74</ele>
        <time>2010-01-01T00:37:53Z</time>
      </trkpt>
      <trkpt lat="37.38377" lon="-8.80785">
        <ele>70</ele>
        <time>2010-01-01T00:38:37Z</time>
      </trkpt>
      <trkpt lat="37.38524" lon="-8.809">
        <ele>69</ele>
        <time>2010-01-01T00:39:24Z</time>
      </trkpt>
      <trkpt lat="37.38605" lon="-8.80967">
        <ele>66</ele>
        <time>2010-01-01T00:39:50Z</time>
      </trkpt>
      <trkpt lat="37.38687" lon="-8.80952">
        <ele>65</ele>
        <time>2010-01-01T00:40:12Z</time>
      </trkpt>
      <trkpt lat="37.38804" lon="-8.80879">
        <ele>68</ele>
        <time>2010-01-01T00:40:46Z</time>
      </trkpt>
      <trkpt lat="37.3899" lon="-8.80756">
        <ele>67</ele>
        <time>2010-01-01T00:41:43Z</time>
      </trkpt>
      <trkpt lat="37.39065" lon="-8.80693">
        <ele>68</ele>
        <time>2010-01-01T00:42:07Z</time>
      </trkpt>
      <trkpt lat="37.39223" lon="-8.8055">
        <ele>73</ele>
        <time>2010-01-01T00:42:59Z</time>
      </trkpt>
      <trkpt lat="37.39225" lon="-8.80549">
        <ele>73</ele>
        <time>2010-01-01T00:42:59Z</time>
      </trkpt>
      <trkpt lat="37.39464" lon="-8.80364">
        <ele>70</ele>
        <time>2010-01-01T00:44:14Z</time>
      </trkpt>
      <trkpt lat="37.39657" lon="-8.80244">
        <ele>68</ele>
        <time>2010-01-01T00:45:12Z</time>
      </trkpt>
      <trkpt lat="37.39717" lon="-8.80182">
        <ele>74</ele>
        <time>2010-01-01T00:45:32Z</time>
      </trkpt>
      <trkpt lat="37.39775" lon="-8.80111">
        <ele>73</ele>
        <time>2010-01-01T00:45:54Z</time>
      </trkpt>
      <trkpt lat="37.39801" lon="-8.79927">
        <ele>77</ele>
        <time>2010-01-01T00:46:34Z</time>
      </trkpt>
      <trkpt lat="37.39793" lon="-8.79787">
        <ele>78</ele>
        <time>2010-01-01T00:47:03Z</time>
      </trkpt>
      <trkpt lat="37.39779" lon="-8.79708">
        <ele>77</ele>
        <time>2010-01-01T00:47:20Z</time>
      </trkpt>
      <trkpt lat="37.39837" lon="-8.79567">
        <ele>78</ele>
        <time>2010-01-01T00:47:54Z</time>
      </trkpt>
      <trkpt lat="37.39851" lon="-8.79494">
        <ele>79</ele>
        <time>2010-01-01T00:48:10Z</time>
      </trkpt>
      <trkpt lat="37.39837" lon="-8.79371">
        <ele>84</ele>
        <time>2010-01-01T00:48:36Z</time>
      </trkpt>
      <trkpt lat="37.39861" lon="-8.79303">
        <ele>84</ele>
        <time>2010-01-01T00:48:52Z</time>
      </trkpt>
      <trkpt lat="37.39827" lon="-8.79166">
        <ele>85</ele>
        <time>2010-01-01T00:49:22Z</time>
      </trkpt>
      <trkpt lat="37.39809" lon="-8.79126">
        <ele>86</ele>
        <time>2010-01-01T00:49:32Z</time>
      </trkpt>
      <trkpt lat="37.39798" lon="-8.79097">
        <ele>86</ele>
        <time>2010-01-01T00:49:39Z</time>
      </trkpt>
      <trkpt lat="37.39866" lon="-8.79069">
        <ele>87</ele>
        <time>2010-01-01T00:49:58Z</time>
      </trkpt>
      <trkpt lat="37.39922" lon="-8.79046">
        <ele>88</ele>
        <time>2010-01-01T00:50:14Z</time>
      </trkpt>
      <trkpt lat="37.4" lon="-8.79007">
        <ele>89</ele>
        <time>2010-01-01T00:50:36Z</time>
      </trkpt>
      <trkpt lat="37.40078" lon="-8.78955">
        <ele>88</ele>
        <time>2010-01-01T00:51:00Z</time>
      </trkpt>
      <trkpt lat="37.40098" lon="-8.78932">
        <ele>88</ele>
        <time>2010-01-01T00:51:07Z</time>
      </trkpt>
      <trkpt lat="37.40121" lon="-8.78869">
        <ele>88</ele>
        <time>2010-01-01T00:51:22Z</time>
      </trkpt>
      <trkpt lat="37.40123" lon="-8.78852">
        <ele>87</ele>
        <time>2010-01-01T00:51:25Z</time>
      </trkpt>
      <trkpt lat="37.40057" lon="-8.78782">
        <ele>90</ele>
        <time>2010-01-01T00:51:48Z</time>
      </trkpt>
      <trkpt lat="37.40022" lon="-8.78737">
        <ele>90</ele>
        <time>2010-01-01T00:52:02Z</time>
      </trkpt>
      <trkpt lat="37.40062" lon="-8.78698">
        <ele>88</ele>
        <time>2010-01-01T00:52:15Z</time>
      </trkpt>
      <trkpt lat="37.4009" lon="-8.78704">
        <ele>88</ele>
        <time>2010-01-01T00:52:23Z</time>
      </trkpt>
      <trkpt lat="37.4021" lon="-8.78733">
        <ele>88</ele>
        <time>2010-01-01T00:52:55Z</time>
      </trkpt>
      <trkpt lat="37.4028" lon="-8.78704">
        <ele>87</ele>
        <time>2010-01-01T00:53:15Z</time>
      </trkpt>
      <trkpt lat="37.40336" lon="-8.78659">
        <ele>88</ele>
        <time>2010-01-01T00:53:33Z</time>
      </trkpt>
      <trkpt lat="37.40318" lon="-8.78593">
        <ele>88</ele>
        <time>2010-01-01T00:53:48Z</time>
      </trkpt>
      <trkpt lat="37.40276" lon="-8.78464">
        <ele>93</ele>
        <time>2010-01-01T00:54:17Z</time>
      </trkpt>
      <trkpt lat="37.40202" lon="-8.78234">
        <ele>97</ele>
        <time>2010-01-01T00:55:10Z</time>
      </trkpt>
      <trkpt lat="37.40352" lon="-8.78315">
        <ele>93</ele>
        <time>2010-01-01T00:55:53Z</time>
      </trkpt>
      <trkpt lat="37.40499" lon="-8.78395">
        <ele>89</ele>
        <time>2010-01-01T00:56:36Z</time>
      </trkpt>
      <trkpt lat="37.40624" lon="-8.78463">
        <ele>85</ele>
        <time>2010-01-01T00:57:12Z</time>
      </trkpt>
      <trkpt lat="37.40666" lon="-8.78486">
        <ele>86</ele>
        <time>2010-01-01T00:57:24Z</time>
      </trkpt>
      <trkpt lat="37.40693" lon="-8.78499">
        <ele>85</ele>
        <time>2010-01-01T00:57:32Z</time>
      </trkpt>
      <trkpt lat="37.40747" lon="-8.78508">
        <ele>82</ele>
        <time>2010-01-01T00:57:47Z</time>
      </trkpt>
      <trkpt lat="37.40811" lon="-8.78511">
        <ele>79</ele>
        <time>2010-01-01T00:58:04Z</time>
      </trkpt>
      <trkpt lat="37.40839" lon="-8.7851">
        <ele>79</ele>
        <time>2010-01-01T00:58:11Z</time>
      </trkpt>
      <trkpt lat="37.4091" lon="-8.78509">
        <ele>82</ele>
        <time>2010-01-01T00:58:30Z</time>
      </trkpt>
      <trkpt lat="37.40968" lon="-8.78538">
        <ele>84</ele>
        <time>2010-01-01T00:58:47Z</time>
      </trkpt>
      <trkpt lat="37.41013" lon="-8.78545">
        <ele>85</ele>
        <time>2010-01-01T00:58:59Z</time>
      </trkpt>
      <trkpt lat="37.41061" lon="-8.78547">
        <ele>85</ele>
        <time>2010-01-01T00:59:12Z</time>
      </trkpt>
      <trkpt lat="37.41199" lon="-8.78545">
        <ele>85</ele>
        <time>2010-01-01T00:59:49Z</time>
      </trkpt>
      <trkpt lat="37.41317" lon="-8.78544">
        <ele>84</ele>
        <time>2010-01-01T01:00:20Z</time>
      </trkpt>
      <trkpt lat="37.41522" lon="-8.78489">
        <ele>84</ele>
        <time>2010-01-01T01:01:16Z</time>
      </trkpt>
      <trkpt lat="37.41732" lon="-8.78395">
        <ele>85</ele>
        <time>2010-01-01T01:02:15Z</time>
      </trkpt>
      <trkpt lat="37.41825" lon="-8.78334">
        <ele>85</ele>
        <time>2010-01-01T01:02:43Z</time>
      </trkpt>
      <trkpt lat="37.41958" lon="-8.78274">
        <ele>87</ele>
        <time>2010-01-01T01:03:21Z</time>
      </trkpt>
      <trkpt lat="37.41985" lon="-8.78296">
        <ele>87</ele>
        <time>2010-01-01T01:03:30Z</time>
      </trkpt>
      <trkpt lat="37.41983" lon="-8.78353">
        <ele>85</ele>
        <time>2010-01-01T01:03:42Z</time>
      </trkpt>
      <trkpt lat="37.41976" lon="-8.78417">
        <ele>82</ele>
        <time>2010-01-01T01:03:55Z</time>
      </trkpt>
      <trkpt lat="37.4198" lon="-8.78489">
        <ele>83</ele>
        <time>2010-01-01T01:04:11Z</time>
      </trkpt>
      <trkpt lat="37.42004" lon="-8.78581">
        <ele>82</ele>
        <time>2010-01-01T01:04:31Z</time>
      </trkpt>
      <trkpt lat="37.42015" lon="-8.78618">
        <ele>82</ele>
        <time>2010-01-01T01:04:40Z</time>
      </trkpt>
      <trkpt lat="37.42073" lon="-8.78614">
        <ele>82</ele>
        <time>2010-01-01T01:04:55Z</time>
      </trkpt>
      <trkpt lat="37.42109" lon="-8.78623">
        <ele>81</ele>
        <time>2010-01-01T01:05:05Z</time>
      </trkpt>
      <trkpt lat="37.42174" lon="-8.78623">
        <ele>81</ele>
        <time>2010-01-01T01:05:22Z</time>
      </trkpt>
      <trkpt lat="37.42221" lon="-8.78616">
        <ele>83</ele>
        <time>2010-01-01T01:05:35Z</time>
      </trkpt>
      <trkpt lat="37.42276" lon="-8.78598">
        <ele>83</ele>
        <time>2010-01-01T01:05:50Z</time>
      </trkpt>
      <trkpt lat="37.42357" lon="-8.78575">
        <ele>85</ele>
        <time>2010-01-01T01:06:12Z</time>
      </trkpt>
      <trkpt lat="37.42484" lon="-8.78563">
        <ele>87</ele>
        <time>2010-01-01T01:06:46Z</time>
      </trkpt>
      <trkpt lat="37.42593" lon="-8.78561">
        <ele>84</ele>
        <time>2010-01-01T01:07:16Z</time>
      </trkpt>
      <trkpt lat="37.42619" lon="-8.78669">
        <ele>82</ele>
        <time>2010-01-01T01:07:39Z</time>
      </trkpt>
      <trkpt lat="37.42675" lon="-8.78775">
        <ele>83</ele>
        <time>2010-01-01T01:08:06Z</time>
      </trkpt>
      <trkpt lat="37.42736" lon="-8.78895">
        <ele>76</ele>
        <time>2010-01-01T01:08:37Z</time>
      </trkpt>
      <trkpt lat="37.42797" lon="-8.78954">
        <ele>71</ele>
        <time>2010-01-01T01:08:57Z</time>
      </trkpt>
      <trkpt lat="37.42903" lon="-8.79048">
        <ele>67</ele>
        <time>2010-01-01T01:09:32Z</time>
      </trkpt>
      <trkpt lat="37.42948" lon="-8.79085">
        <ele>68</ele>
        <time>2010-01-01T01:09:46Z</time>
      </trkpt>
      <trkpt lat="37.43049" lon="-8.79183">
        <ele>69</ele>
        <time>2010-01-01T01:10:20Z</time>
      </trkpt>
      <trkpt lat="37.43133" lon="-8.79258">
        <ele>65</ele>
        <time>2010-01-01T01:10:48Z</time>
      </trkpt>
      <trkpt lat="37.43173" lon="-8.79288">
        <ele>66</ele>
        <time>2010-01-01T01:11:00Z</time>
      </trkpt>
      <trkpt lat="37.43248" lon="-8.79312">
        <ele>63</ele>
        <time>2010-01-01T01:11:21Z</time>
      </trkpt>
      <trkpt lat="37.43367" lon="-8.79357">
        <ele>58</ele>
        <time>2010-01-01T01:11:54Z</time>
      </trkpt>
      <trkpt lat="37.43478" lon="-8.79363">
        <ele>50</ele>
        <time>2010-01-01T01:12:23Z</time>
      </trkpt>
      <trkpt lat="37.43542" lon="-8.79406">
        <ele>49</ele>
        <time>2010-01-01T01:12:43Z</time>
      </trkpt>
      <trkpt lat="37.43565" lon="-8.79477">
        <ele>53</ele>
        <time>2010-01-01T01:12:59Z</time>
      </trkpt>
      <trkpt lat="37.43585" lon="-8.79547">
        <ele>56</ele>
        <time>2010-01-01T01:13:15Z</time>
      </trkpt>
      <trkpt lat="37.43626" lon="-8.79571">
        <ele>55</ele>
        <time>2010-01-01T01:13:27Z</time>
      </trkpt>
      <trkpt lat="37.43684" lon="-8.79605">
        <ele>56</ele>
        <time>2010-01-01T01:13:44Z</time>
      </trkpt>
      <trkpt lat="37.43732" lon="-8.79593">
        <ele>53</ele>
        <time>2010-01-01T01:13:57Z</time>
      </trkpt>
      <trkpt lat="37.43787" lon="-8.79582">
        <ele>47</ele>
        <time>2010-01-01T01:14:12Z</time>
      </trkpt>
      <trkpt lat="37.43812" lon="-8.79642">
        <ele>51</ele>
        <time>2010-01-01T01:14:26Z</time>
      </trkpt>
      <trkpt lat="37.43826" lon="-8.79769">
        <ele>51</ele>
        <time>2010-01-01T01:14:53Z</time>
      </trkpt>
      <trkpt lat="37.43803" lon="-8.79832">
        <ele>50</ele>
        <time>2010-01-01T01:15:08Z</time>
      </trkpt>
      <trkpt lat="37.43799" lon="-8.79869">
        <ele>48</ele>
        <time>2010-01-01T01:15:16Z</time>
      </trkpt>
      <trkpt lat="37.43816" lon="-8.79905">
        <ele>46</ele>
        <time>2010-01-01T01:15:25Z</time>
      </trkpt>
      <trkpt lat="37.43873" lon="-8.79953">
        <ele>36</ele>
        <time>2010-01-01T01:15:43Z</time>
      </trkpt>
      <trkpt lat="37.43911" lon="-8.79973">
        <ele>26</ele>
        <time>2010-01-01T01:15:54Z</time>
      </trkpt>
      <trkpt lat="37.439" lon="-8.79922">
        <ele>36</ele>
        <time>2010-01-01T01:16:05Z</time>
      </trkpt>
      <trkpt lat="37.43909" lon="-8.79892">
        <ele>37</ele>
        <time>2010-01-01T01:16:12Z</time>
      </trkpt>
      <trkpt lat="37.43938" lon="-8.79905">
        <ele>33</ele>
        <time>2010-01-01T01:16:21Z</time>
      </trkpt>
      <trkpt lat="37.43978" lon="-8.7992">
        <ele>28</ele>
        <time>2010-01-01T01:16:32Z</time>
      </trkpt>
      <trkpt lat="37.44014" lon="-8.79915">
        <ele>23</ele>
        <time>2010-01-01T01:16:41Z</time>
      </trkpt>
      <trkpt lat="37.44035" lon="-8.799">
        <ele>22</ele>
        <time>2010-01-01T01:16:48Z</time>
      </trkpt>
      <trkpt lat="37.44069" lon="-8.79838">
        <ele>14</ele>
        <time>2010-01-01T01:17:04Z</time>
      </trkpt>
      <trkpt lat="37.44073" lon="-8.79811">
        <ele>12</ele>
        <time>2010-01-01T01:17:10Z</time>
      </trkpt>
      <trkpt lat="37.44045" lon="-8.79761">
        <ele>27</ele>
        <time>2010-01-01T01:17:22Z</time>
      </trkpt>
      <trkpt lat="37.44018" lon="-8.79748">
        <ele>31</ele>
        <time>2010-01-01T01:17:30Z</time>
      </trkpt>
      <trkpt lat="37.43992" lon="-8.79735">
        <ele>33</ele>
        <time>2010-01-01T01:17:38Z</time>
      </trkpt>
      <trkpt lat="37.43952" lon="-8.79673">
        <ele>33</ele>
        <time>2010-01-01T01:17:55Z</time>
      </trkpt>
      <trkpt lat="37.43897" lon="-8.79648">
        <ele>36</ele>
        <time>2010-01-01T01:18:10Z</time>
      </trkpt>
      <trkpt lat="37.43864" lon="-8.79632">
        <ele>39</ele>
        <time>2010-01-01T01:18:20Z</time>
      </trkpt>
      <trkpt lat="37.43833" lon="-8.79584">
        <ele>36</ele>
        <time>2010-01-01T01:18:33Z</time>
      </trkpt>
      <trkpt lat="37.43792" lon="-8.79544">
        <ele>35</ele>
        <time>2010-01-01T01:18:47Z</time>
      </trkpt>
      <trkpt lat="37.43731" lon="-8.79486">
        <ele>32</ele>
        <time>2010-01-01T01:19:07Z</time>
      </trkpt>
      <trkpt lat="37.43686" lon="-8.7947">
        <ele>32</ele>
        <time>2010-01-01T01:19:19Z</time>
      </trkpt>
      <trkpt lat="37.43653" lon="-8.7946">
        <ele>32</ele>
        <time>2010-01-01T01:19:28Z</time>
      </trkpt>
      <trkpt lat="37.43637" lon="-8.79448">
        <ele>31</ele>
        <time>2010-01-01T01:19:33Z</time>
      </trkpt>
      <trkpt lat="37.43621" lon="-8.79424">
        <ele>31</ele>
        <time>2010-01-01T01:19:40Z</time>
      </trkpt>
      <trkpt lat="37.43589" lon="-8.79376">
        <ele>27</ele>
        <time>2010-01-01T01:19:53Z</time>
      </trkpt>
      <trkpt lat="37.4354" lon="-8.79337">
        <ele>28</ele>
        <time>2010-01-01T01:20:09Z</time>
      </trkpt>
      <trkpt lat="37.43503" lon="-8.79311">
        <ele>29</ele>
        <time>2010-01-01T01:20:20Z</time>
      </trkpt>
      <trkpt lat="37.43497" lon="-8.79291">
        <ele>27</ele>
        <time>2010-01-01T01:20:25Z</time>
      </trkpt>
      <trkpt lat="37.43512" lon="-8.79246">
        <ele>21</ele>
        <time>2010-01-01T01:20:35Z</time>
      </trkpt>
      <trkpt lat="37.43514" lon="-8.79227">
        <ele>18</ele>
        <time>2010-01-01T01:20:39Z</time>
      </trkpt>
      <trkpt lat="37.43497" lon="-8.79183">
        <ele>21</ele>
        <time>2010-01-01T01:20:50Z</time>
      </trkpt>
      <trkpt lat="37.43505" lon="-8.79073">
        <ele>16</ele>
        <time>2010-01-01T01:21:13Z</time>
      </trkpt>
      <trkpt lat="37.43509" lon="-8.79031">
        <ele>13</ele>
        <time>2010-01-01T01:21:22Z</time>
      </trkpt>
      <trkpt lat="37.43482" lon="-8.78975">
        <ele>14</ele>
        <time>2010-01-01T01:21:36Z</time>
      </trkpt>
      <trkpt lat="37.43422" lon="-8.78927">
        <ele>10</ele>
        <time>2010-01-01T01:21:55Z</time>
      </trkpt>
      <trkpt lat="37.4339" lon="-8.7889">
        <ele>3</ele>
        <time>2010-01-01T01:22:06Z</time>
      </trkpt>
      <trkpt lat="37.43366" lon="-8.78774">
        <ele>2</ele>
        <time>2010-01-01T01:22:32Z</time>
      </trkpt>
      <trkpt lat="37.43348" lon="-8.787">
        <ele>4</ele>
        <time>2010-01-01T01:22:48Z</time>
      </trkpt>
      <trkpt lat="37.43362" lon="-8.78659">
        <ele>4</ele>
        <time>2010-01-01T01:22:58Z</time>
      </trkpt>
      <trkpt lat="37.43435" lon="-8.78606">
        <ele>7</ele>
        <time>2010-01-01T01:23:20Z</time>
      </trkpt>
      <trkpt lat="37.43476" lon="-8.78565">
        <ele>6</ele>
        <time>2010-01-01T01:23:34Z</time>
      </trkpt>
      <trkpt lat="37.43409" lon="-8.78525">
        <ele>12</ele>
        <time>2010-01-01T01:23:54Z</time>
      </trkpt>
      <trkpt lat="37.43339" lon="-8.78494">
        <ele>14</ele>
        <time>2010-01-01T01:24:14Z</time>
      </trkpt>
      <trkpt lat="37.4329" lon="-8.78413">
        <ele>8</ele>
        <time>2010-01-01T01:24:35Z</time>
      </trkpt>
      <trkpt lat="37.43255" lon="-8.78301">
        <ele>12</ele>
        <time>2010-01-01T01:25:01Z</time>
      </trkpt>
      <trkpt lat="37.43254" lon="-8.78275">
        <ele>10</ele>
        <time>2010-01-01T01:25:06Z</time>
      </trkpt>
      <trkpt lat="37.43259" lon="-8.78236">
        <ele>7</ele>
        <time>2010-01-01T01:25:15Z</time>
      </trkpt>
      <trkpt lat="37.43253" lon="-8.78187">
        <ele>8</ele>
        <time>2010-01-01T01:25:25Z</time>
      </trkpt>
      <trkpt lat="37.43208" lon="-8.78067">
        <ele>8</ele>
        <time>2010-01-01T01:25:54Z</time>
      </trkpt>
      <trkpt lat="37.43163" lon="-8.77943">
        <ele>8</ele>
        <time>2010-01-01T01:26:22Z</time>
      </trkpt>
      <trkpt lat="37.43124" lon="-8.77851">
        <ele>9</ele>
        <time>2010-01-01T01:26:44Z</time>
      </trkpt>
      <trkpt lat="37.43083" lon="-8.77663">
        <ele>10</ele>
        <time>2010-01-01T01:27:26Z</time>
      </trkpt>
      <trkpt lat="37.43108" lon="-8.77584">
        <ele>6</ele>
        <time>2010-01-01T01:27:44Z</time>
      </trkpt>
      <trkpt lat="37.43165" lon="-8.77476">
        <ele>8</ele>
        <time>2010-01-01T01:28:11Z</time>
      </trkpt>
      <trkpt lat="37.43229" lon="-8.77442">
        <ele>7</ele>
        <time>2010-01-01T01:28:30Z</time>
      </trkpt>
      <trkpt lat="37.43273" lon="-8.7741">
        <ele>7</ele>
        <time>2010-01-01T01:28:43Z</time>
      </trkpt>
      <trkpt lat="37.43337" lon="-8.77281">
        <ele>3</ele>
        <time>2010-01-01T01:29:16Z</time>
      </trkpt>
      <trkpt lat="37.43422" lon="-8.77187">
        <ele>4</ele>
        <time>2010-01-01T01:29:46Z</time>
      </trkpt>
      <trkpt lat="37.43429" lon="-8.77161">
        <ele>5</ele>
        <time>2010-01-01T01:29:52Z</time>
      </trkpt>
      <trkpt lat="37.43433" lon="-8.77012">
        <ele>4</ele>
        <time>2010-01-01T01:30:23Z</time>
      </trkpt>
      <trkpt lat="37.43414" lon="-8.76927">
        <ele>9</ele>
        <time>2010-01-01T01:30:42Z</time>
      </trkpt>
      <trkpt lat="37.43416" lon="-8.76858">
        <ele>12</ele>
        <time>2010-01-01T01:30:57Z</time>
      </trkpt>
      <trkpt lat="37.43416" lon="-8.76803">
        <ele>15</ele>
        <time>2010-01-01T01:31:08Z</time>
      </trkpt>
      <trkpt lat="37.43406" lon="-8.76761">
        <ele>15</ele>
        <time>2010-01-01T01:31:18Z</time>
      </trkpt>
      <trkpt lat="37.43367" lon="-8.76635">
        <ele>7</ele>
        <time>2010-01-01T01:31:46Z</time>
      </trkpt>
      <trkpt lat="37.43427" lon="-8.76577">
        <ele>4</ele>
        <time>2010-01-01T01:32:06Z</time>
      </trkpt>
      <trkpt lat="37.43481" lon="-8.76524">
        <ele>3</ele>
        <time>2010-01-01T01:32:25Z</time>
      </trkpt>
      <trkpt lat="37.43529" lon="-8.76482">
        <ele>7</ele>
        <time>2010-01-01T01:32:40Z</time>
      </trkpt>
      <trkpt lat="37.43578" lon="-8.765">
        <ele>9</ele>
        <time>2010-01-01T01:32:54Z</time>
      </trkpt>
      <trkpt lat="37.4361" lon="-8.76561">
        <ele>9</ele>
        <time>2010-01-01T01:33:09Z</time>
      </trkpt>
      <trkpt lat="37.43625" lon="-8.76626">
        <ele>8</ele>
        <time>2010-01-01T01:33:24Z</time>
      </trkpt>
      <trkpt lat="37.43635" lon="-8.76748">
        <ele>4</ele>
        <time>2010-01-01T01:33:50Z</time>
      </trkpt>
      <trkpt lat="37.43668" lon="-8.76822">
        <ele>4</ele>
        <time>2010-01-01T01:34:08Z</time>
      </trkpt>
      <trkpt lat="37.43668" lon="-8.76919">
        <ele>11</ele>
        <time>2010-01-01T01:34:28Z</time>
      </trkpt>
      <trkpt lat="37.43669" lon="-8.77007">
        <ele>11</ele>
        <time>2010-01-01T01:34:47Z</time>
      </trkpt>
      <trkpt lat="37.43676" lon="-8.77044">
        <ele>11</ele>
        <time>2010-01-01T01:34:55Z</time>
      </trkpt>
      <trkpt lat="37.43713" lon="-8.77137">
        <ele>9</ele>
        <time>2010-01-01T01:35:17Z</time>
      </trkpt>
      <trkpt lat="37.43708" lon="-8.77183">
        <ele>6</ele>
        <time>2010-01-01T01:35:27Z</time>
      </trkpt>
      <trkpt lat="37.43712" lon="-8.7723">
        <ele>6</ele>
        <time>2010-01-01T01:35:37Z</time>
      </trkpt>
      <trkpt lat="37.4372" lon="-8.77242">
        <ele>6</ele>
        <time>2010-01-01T01:35:40Z</time>
      </trkpt>
      <trkpt lat="37.43766" lon="-8.7728">
        <ele>14</ele>
        <time>2010-01-01T01:35:55Z</time>
      </trkpt>
      <trkpt lat="37.43793" lon="-8.77376">
        <ele>17</ele>
        <time>2010-01-01T01:36:16Z</time>
      </trkpt>
      <trkpt lat="37.43793" lon="-8.7741">
        <ele>19</ele>
        <time>2010-01-01T01:36:24Z</time>
      </trkpt>
      <trkpt lat="37.43747" lon="-8.77436">
        <ele>18</ele>
        <time>2010-01-01T01:36:37Z</time>
      </trkpt>
      <trkpt lat="37.4374" lon="-8.77446">
        <ele>19</ele>
        <time>2010-01-01T01:36:40Z</time>
      </trkpt>
      <trkpt lat="37.43738" lon="-8.77492">
        <ele>22</ele>
        <time>2010-01-01T01:36:50Z</time>
      </trkpt>
      <trkpt lat="37.437" lon="-8.77565">
        <ele>24</ele>
        <time>2010-01-01T01:37:08Z</time>
      </trkpt>
      <trkpt lat="37.43657" lon="-8.77686">
        <ele>23</ele>
        <time>2010-01-01T01:37:36Z</time>
      </trkpt>
      <trkpt lat="37.4363" lon="-8.77747">
        <ele>13</ele>
        <time>2010-01-01T01:37:51Z</time>
      </trkpt>
      <trkpt lat="37.43579" lon="-8.77886">
        <ele>10</ele>
        <time>2010-01-01T01:38:23Z</time>
      </trkpt>
      <trkpt lat="37.43576" lon="-8.7793">
        <ele>9</ele>
        <time>2010-01-01T01:38:33Z</time>
      </trkpt>
      <trkpt lat="37.43579" lon="-8.7806">
        <ele>9</ele>
        <time>2010-01-01T01:39:00Z</time>
      </trkpt>
      <trkpt lat="37.4356" lon="-8.78125">
        <ele>8</ele>
        <time>2010-01-01T01:39:15Z</time>
      </trkpt>
      <trkpt lat="37.43542" lon="-8.78184">
        <ele>8</ele>
        <time>2010-01-01T01:39:28Z</time>
      </trkpt>
      <trkpt lat="37.4355" lon="-8.78272">
        <ele>7</ele>
        <time>2010-01-01T01:39:47Z</time>
      </trkpt>
      <trkpt lat="37.43582" lon="-8.78309">
        <ele>8</ele>
        <time>2010-01-01T01:39:58Z</time>
      </trkpt>
      <trkpt lat="37.43625" lon="-8.78348">
        <ele>7</ele>
        <time>2010-01-01T01:40:13Z</time>
      </trkpt>
      <trkpt lat="37.43644" lon="-8.78384">
        <ele>6</ele>
        <time>2010-01-01T01:40:22Z</time>
      </trkpt>
      <trkpt lat="37.43693" lon="-8.78351">
        <ele>15</ele>
        <time>2010-01-01T01:40:37Z</time>
      </trkpt>
      <trkpt lat="37.43723" lon="-8.78399">
        <ele>17</ele>
        <time>2010-01-01T01:40:50Z</time>
      </trkpt>
      <trkpt lat="37.43735" lon="-8.78464">
        <ele>19</ele>
        <time>2010-01-01T01:41:04Z</time>
      </trkpt>
      <trkpt lat="37.43776" lon="-8.78457">
        <ele>27</ele>
        <time>2010-01-01T01:41:15Z</time>
      </trkpt>
      <trkpt lat="37.43788" lon="-8.78484">
        <ele>29</ele>
        <time>2010-01-01T01:41:21Z</time>
      </trkpt>
      <trkpt lat="37.43802" lon="-8.78535">
        <ele>34</ele>
        <time>2010-01-01T01:41:33Z</time>
      </trkpt>
      <trkpt lat="37.43832" lon="-8.78582">
        <ele>42</ele>
        <time>2010-01-01T01:41:45Z</time>
      </trkpt>
      <trkpt lat="37.43875" lon="-8.78658">
        <ele>49</ele>
        <time>2010-01-01T01:42:05Z</time>
      </trkpt>
      <trkpt lat="37.43914" lon="-8.78652">
        <ele>56</ele>
        <time>2010-01-01T01:42:16Z</time>
      </trkpt>
      <trkpt lat="37.43976" lon="-8.78678">
        <ele>61</ele>
        <time>2010-01-01T01:42:33Z</time>
      </trkpt>
      <trkpt lat="37.44021" lon="-8.78705">
        <ele>63</ele>
        <time>2010-01-01T01:42:46Z</time>
      </trkpt>
      <trkpt lat="37.44062" lon="-8.78736">
        <ele>63</ele>
        <time>2010-01-01T01:42:59Z</time>
      </trkpt>
      <trkpt lat="37.44083" lon="-8.78783">
        <ele>63</ele>
        <time>2010-01-01T01:43:10Z</time>
      </trkpt>
      <trkpt lat="37.44126" lon="-8.78842">
        <ele>64</ele>
        <time>2010-01-01T01:43:27Z</time>
      </trkpt>
      <trkpt lat="37.44188" lon="-8.78783">
        <ele>66</ele>
        <time>2010-01-01T01:43:48Z</time>
      </trkpt>
      <trkpt lat="37.44223" lon="-8.78749">
        <ele>67</ele>
        <time>2010-01-01T01:44:00Z</time>
      </trkpt>
      <trkpt lat="37.4427" lon="-8.78699">
        <ele>69</ele>
        <time>2010-01-01T01:44:16Z</time>
      </trkpt>
      <trkpt lat="37.44283" lon="-8.78662">
        <ele>69</ele>
        <time>2010-01-01T01:44:25Z</time>
      </trkpt>
      <trkpt lat="37.44319" lon="-8.78583">
        <ele>71</ele>
        <time>2010-01-01T01:44:44Z</time>
      </trkpt>
      <trkpt lat="37.44372" lon="-8.78594">
        <ele>71</ele>
        <time>2010-01-01T01:44:58Z</time>
      </trkpt>
      <trkpt lat="37.44539" lon="-8.78501">
        <ele>73</ele>
        <time>2010-01-01T01:45:47Z</time>
      </trkpt>
      <trkpt lat="37.44617" lon="-8.78416">
        <ele>69</ele>
        <time>2010-01-01T01:46:15Z</time>
      </trkpt>
      <trkpt lat="37.44719" lon="-8.78266">
        <ele>73</ele>
        <time>2010-01-01T01:46:57Z</time>
      </trkpt>
      <trkpt lat="37.44903" lon="-8.78021">
        <ele>75</ele>
        <time>2010-01-01T01:48:08Z</time>
      </trkpt>
      <trkpt lat="37.45026" lon="-8.77827">
        <ele>79</ele>
        <time>2010-01-01T01:49:01Z</time>
      </trkpt>
      <trkpt lat="37.45087" lon="-8.7774">
        <ele>80</ele>
        <time>2010-01-01T01:49:25Z</time>
      </trkpt>
      <trkpt lat="37.45349" lon="-8.78184">
        <ele>74</ele>
        <time>2010-01-01T01:51:23Z</time>
      </trkpt>
      <trkpt lat="37.45522" lon="-8.78513">
        <ele>70</ele>
        <time>2010-01-01T01:52:46Z</time>
      </trkpt>
      <trkpt lat="37.45643" lon="-8.78722">
        <ele>64</ele>
        <time>2010-01-01T01:53:41Z</time>
      </trkpt>
      <trkpt lat="37.45794" lon="-8.79013">
        <ele>58</ele>
        <time>2010-01-01T01:54:55Z</time>
      </trkpt>
      <trkpt lat="37.45814" lon="-8.79024">
        <ele>57</ele>
        <time>2010-01-01T01:55:00Z</time>
      </trkpt>
      <trkpt lat="37.45906" lon="-8.79028">
        <ele>54</ele>
        <time>2010-01-01T01:55:25Z</time>
      </trkpt>
      <trkpt lat="37.46022" lon="-8.79035">
        <ele>55</ele>
        <time>2010-01-01T01:55:56Z</time>
      </trkpt>
      <trkpt lat="37.46091" lon="-8.79027">
        <ele>57</ele>
        <time>2010-01-01T01:56:14Z</time>
      </trkpt>
      <trkpt lat="37.46183" lon="-8.79007">
        <ele>58</ele>
        <time>2010-01-01T01:56:39Z</time>
      </trkpt>
      <trkpt lat="37.46274" lon="-8.78942">
        <ele>59</ele>
        <time>2010-01-01T01:57:07Z</time>
      </trkpt>
      <trkpt lat="37.47221" lon="-8.78875">
        <ele>66</ele>
        <time>2010-01-01T02:01:20Z</time>
      </trkpt>
      <trkpt lat="37.47257" lon="-8.78857">
        <ele>65</ele>
        <time>2010-01-01T02:01:31Z</time>
      </trkpt>
      <trkpt lat="37.47367" lon="-8.78803">
        <ele>65</ele>
        <time>2010-01-01T02:02:02Z</time>
      </trkpt>
      <trkpt lat="37.47469" lon="-8.78753">
        <ele>65</ele>
        <time>2010-01-01T02:02:31Z</time>
      </trkpt>
      <trkpt lat="37.47625" lon="-8.78676">
        <ele>66</ele>
        <time>2010-01-01T02:03:16Z</time>
      </trkpt>
      <trkpt lat="37.47752" lon="-8.78604">
        <ele>63</ele>
        <time>2010-01-01T02:03:53Z</time>
      </trkpt>
      <trkpt lat="37.47805" lon="-8.78532">
        <ele>63</ele>
        <time>2010-01-01T02:04:14Z</time>
      </trkpt>
      <trkpt lat="37.47833" lon="-8.78423">
        <ele>67</ele>
        <time>2010-01-01T02:04:38Z</time>
      </trkpt>
      <trkpt lat="37.47921" lon="-8.77766">
        <ele>74</ele>
        <time>2010-01-01T02:06:59Z</time>
      </trkpt>
      <trkpt lat="37.47954" lon="-8.7755">
        <ele>79</ele>
        <time>2010-01-01T02:07:46Z</time>
      </trkpt>
      <trkpt lat="37.47995" lon="-8.77453">
        <ele>77</ele>
        <time>2010-01-01T02:08:09Z</time>
      </trkpt>
      <trkpt lat="37.48021" lon="-8.77366">
        <ele>77</ele>
        <time>2010-01-01T02:08:29Z</time>
      </trkpt>
      <trkpt lat="37.48042" lon="-8.77255">
        <ele>77</ele>
        <time>2010-01-01T02:08:53Z</time>
      </trkpt>
      <trkpt lat="37.48077" lon="-8.77076">
        <ele>82</ele>
        <time>2010-01-01T02:09:32Z</time>
      </trkpt>
      <trkpt lat="37.48114" lon="-8.76903">
        <ele>84</ele>
        <time>2010-01-01T02:10:10Z</time>
      </trkpt>
      <trkpt lat="37.4814" lon="-8.76787">
        <ele>87</ele>
        <time>2010-01-01T02:10:36Z</time>
      </trkpt>
      <trkpt lat="37.4837" lon="-8.77001">
        <ele>80</ele>
        <time>2010-01-01T02:11:52Z</time>
      </trkpt>
      <trkpt lat="37.48489" lon="-8.77137">
        <ele>75</ele>
        <time>2010-01-01T02:12:35Z</time>
      </trkpt>
      <trkpt lat="37.4894" lon="-8.7765">
        <ele>67</ele>
        <time>2010-01-01T02:15:17Z</time>
      </trkpt>
      <trkpt lat="37.49007" lon="-8.77769">
        <ele>64</ele>
        <time>2010-01-01T02:15:48Z</time>
      </trkpt>
      <trkpt lat="37.49042" lon="-8.77832">
        <ele>64</ele>
        <time>2010-01-01T02:16:04Z</time>
      </trkpt>
      <trkpt lat="37.49052" lon="-8.77873">
        <ele>63</ele>
        <time>2010-01-01T02:16:13Z</time>
      </trkpt>
      <trkpt lat="37.49059" lon="-8.77989">
        <ele>63</ele>
        <time>2010-01-01T02:16:38Z</time>
      </trkpt>
      <trkpt lat="37.49073" lon="-8.78059">
        <ele>64</ele>
        <time>2010-01-01T02:16:53Z</time>
      </trkpt>
      <trkpt lat="37.49128" lon="-8.78152">
        <ele>62</ele>
        <time>2010-01-01T02:17:18Z</time>
      </trkpt>
      <trkpt lat="37.49188" lon="-8.7822">
        <ele>62</ele>
        <time>2010-01-01T02:17:39Z</time>
      </trkpt>
      <trkpt lat="37.49229" lon="-8.78265">
        <ele>61</ele>
        <time>2010-01-01T02:17:54Z</time>
      </trkpt>
      <trkpt lat="37.4929" lon="-8.7833">
        <ele>60</ele>
        <time>2010-01-01T02:18:15Z</time>
      </trkpt>
      <trkpt lat="37.49354" lon="-8.78397">
        <ele>59</ele>
        <time>2010-01-01T02:18:37Z</time>
      </trkpt>
      <trkpt lat="37.49405" lon="-8.78453">
        <ele>57</ele>
        <time>2010-01-01T02:18:55Z</time>
      </trkpt>
      <trkpt lat="37.49434" lon="-8.78488">
        <ele>57</ele>
        <time>2010-01-01T02:19:06Z</time>
      </trkpt>
      <trkpt lat="37.49463" lon="-8.78558">
        <ele>56</ele>
        <time>2010-01-01T02:19:23Z</time>
      </trkpt>
      <trkpt lat="37.49491" lon="-8.78645">
        <ele>53</ele>
        <time>2010-01-01T02:19:43Z</time>
      </trkpt>
      <trkpt lat="37.49539" lon="-8.78796">
        <ele>51</ele>
        <time>2010-01-01T02:20:17Z</time>
      </trkpt>
      <trkpt lat="37.49596" lon="-8.78907">
        <ele>47</ele>
        <time>2010-01-01T02:20:45Z</time>
      </trkpt>
      <trkpt lat="37.49618" lon="-8.78934">
        <ele>46</ele>
        <time>2010-01-01T02:20:53Z</time>
      </trkpt>
      <trkpt lat="37.49655" lon="-8.78964">
        <ele>43</ele>
        <time>2010-01-01T02:21:05Z</time>
      </trkpt>
      <trkpt lat="37.49697" lon="-8.78996">
        <ele>40</ele>
        <time>2010-01-01T02:21:18Z</time>
      </trkpt>
      <trkpt lat="37.4974" lon="-8.79037">
        <ele>39</ele>
        <time>2010-01-01T02:21:32Z</time>
      </trkpt>
      <trkpt lat="37.49792" lon="-8.79081">
        <ele>36</ele>
        <time>2010-01-01T02:21:49Z</time>
      </trkpt>
      <trkpt lat="37.49832" lon="-8.79088">
        <ele>31</ele>
        <time>2010-01-01T02:22:00Z</time>
      </trkpt>
      <trkpt lat="37.49885" lon="-8.79025">
        <ele>14</ele>
        <time>2010-01-01T02:22:19Z</time>
      </trkpt>
      <trkpt lat="37.4993" lon="-8.79028">
        <ele>7</ele>
        <time>2010-01-01T02:22:31Z</time>
      </trkpt>
      <trkpt lat="37.49943" lon="-8.79021">
        <ele>6</ele>
        <time>2010-01-01T02:22:35Z</time>
      </trkpt>
      <trkpt lat="37.49965" lon="-8.78991">
        <ele>7</ele>
        <time>2010-01-01T02:22:44Z</time>
      </trkpt>
      <trkpt lat="37.49985" lon="-8.78977">
        <ele>11</ele>
        <time>2010-01-01T02:22:50Z</time>
      </trkpt>
      <trkpt lat="37.50016" lon="-8.79018">
        <ele>9</ele>
        <time>2010-01-01T02:23:02Z</time>
      </trkpt>
      <trkpt lat="37.50035" lon="-8.7906">
        <ele>7</ele>
        <time>2010-01-01T02:23:12Z</time>
      </trkpt>
      <trkpt lat="37.50039" lon="-8.79115">
        <ele>10</ele>
        <time>2010-01-01T02:23:24Z</time>
      </trkpt>
      <trkpt lat="37.5006" lon="-8.79136">
        <ele>11</ele>
        <time>2010-01-01T02:23:31Z</time>
      </trkpt>
      <trkpt lat="37.50099" lon="-8.79167">
        <ele>10</ele>
        <time>2010-01-01T02:23:43Z</time>
      </trkpt>
      <trkpt lat="37.50142" lon="-8.79197">
        <ele>15</ele>
        <time>2010-01-01T02:23:56Z</time>
      </trkpt>
      <trkpt lat="37.50198" lon="-8.79227">
        <ele>27</ele>
        <time>2010-01-01T02:24:13Z</time>
      </trkpt>
      <trkpt lat="37.50235" lon="-8.79249">
        <ele>19</ele>
        <time>2010-01-01T02:24:23Z</time>
      </trkpt>
      <trkpt lat="37.50263" lon="-8.79216">
        <ele>24</ele>
        <time>2010-01-01T02:24:34Z</time>
      </trkpt>
      <trkpt lat="37.50289" lon="-8.79193">
        <ele>22</ele>
        <time>2010-01-01T02:24:42Z</time>
      </trkpt>
      <trkpt lat="37.50314" lon="-8.79182">
        <ele>18</ele>
        <time>2010-01-01T02:24:49Z</time>
      </trkpt>
      <trkpt lat="37.50314" lon="-8.79166">
        <ele>25</ele>
        <time>2010-01-01T02:24:53Z</time>
      </trkpt>
      <trkpt lat="37.50315" lon="-8.79127">
        <ele>35</ele>
        <time>2010-01-01T02:25:01Z</time>
      </trkpt>
      <trkpt lat="37.50351" lon="-8.79078">
        <ele>36</ele>
        <time>2010-01-01T02:25:15Z</time>
      </trkpt>
      <trkpt lat="37.50379" lon="-8.79037">
        <ele>39</ele>
        <time>2010-01-01T02:25:26Z</time>
      </trkpt>
      <trkpt lat="37.50398" lon="-8.78997">
        <ele>42</ele>
        <time>2010-01-01T02:25:36Z</time>
      </trkpt>
      <trkpt lat="37.5044" lon="-8.78977">
        <ele>45</ele>
        <time>2010-01-01T02:25:48Z</time>
      </trkpt>
      <trkpt lat="37.50476" lon="-8.78977">
        <ele>45</ele>
        <time>2010-01-01T02:25:58Z</time>
      </trkpt>
      <trkpt lat="37.50553" lon="-8.7899">
        <ele>48</ele>
        <time>2010-01-01T02:26:18Z</time>
      </trkpt>
      <trkpt lat="37.50594" lon="-8.78992">
        <ele>49</ele>
        <time>2010-01-01T02:26:29Z</time>
      </trkpt>
      <trkpt lat="37.50599" lon="-8.78993">
        <ele>49</ele>
        <time>2010-01-01T02:26:31Z</time>
      </trkpt>
      <trkpt lat="37.5061" lon="-8.78998">
        <ele>49</ele>
        <time>2010-01-01T02:26:34Z</time>
      </trkpt>
      <trkpt lat="37.50624" lon="-8.78996">
        <ele>49</ele>
        <time>2010-01-01T02:26:38Z</time>
      </trkpt>
      <trkpt lat="37.50638" lon="-8.79004">
        <ele>48</ele>
        <time>2010-01-01T02:26:42Z</time>
      </trkpt>
      <trkpt lat="37.50658" lon="-8.79011">
        <ele>47</ele>
        <time>2010-01-01T02:26:47Z</time>
      </trkpt>
      <trkpt lat="37.50678" lon="-8.79016">
        <ele>47</ele>
        <time>2010-01-01T02:26:53Z</time>
      </trkpt>
      <trkpt lat="37.50683" lon="-8.79017">
        <ele>47</ele>
        <time>2010-01-01T02:26:54Z</time>
      </trkpt>
      <trkpt lat="37.50694" lon="-8.79025">
        <ele>47</ele>
        <time>2010-01-01T02:26:58Z</time>
      </trkpt>
      <trkpt lat="37.50702" lon="-8.79029">
        <ele>46</ele>
        <time>2010-01-01T02:27:00Z</time>
      </trkpt>
      <trkpt lat="37.50708" lon="-8.79031">
        <ele>46</ele>
        <time>2010-01-01T02:27:01Z</time>
      </trkpt>
      <trkpt lat="37.50709" lon="-8.79033">
        <ele>46</ele>
        <time>2010-01-01T02:27:02Z</time>
      </trkpt>
      <trkpt lat="37.50713" lon="-8.79037">
        <ele>45</ele>
        <time>2010-01-01T02:27:03Z</time>
      </trkpt>
      <trkpt lat="37.50716" lon="-8.79037">
        <ele>46</ele>
        <time>2010-01-01T02:27:04Z</time>
      </trkpt>
      <trkpt lat="37.50754" lon="-8.7902">
        <ele>50</ele>
        <time>2010-01-01T02:27:15Z</time>
      </trkpt>
      <trkpt lat="37.50761" lon="-8.79022">
        <ele>50</ele>
        <time>2010-01-01T02:27:17Z</time>
      </trkpt>
      <trkpt lat="37.50771" lon="-8.7902">
        <ele>51</ele>
        <time>2010-01-01T02:27:19Z</time>
      </trkpt>
      <trkpt lat="37.50778" lon="-8.79012">
        <ele>52</ele>
        <time>2010-01-01T02:27:22Z</time>
      </trkpt>
      <trkpt lat="37.50787" lon="-8.78996">
        <ele>54</ele>
        <time>2010-01-01T02:27:26Z</time>
      </trkpt>
      <trkpt lat="37.50791" lon="-8.78992">
        <ele>55</ele>
        <time>2010-01-01T02:27:27Z</time>
      </trkpt>
      <trkpt lat="37.50797" lon="-8.78986">
        <ele>55</ele>
        <time>2010-01-01T02:27:30Z</time>
      </trkpt>
      <trkpt lat="37.50803" lon="-8.78975">
        <ele>56</ele>
        <time>2010-01-01T02:27:32Z</time>
      </trkpt>
      <trkpt lat="37.50829" lon="-8.78953">
        <ele>59</ele>
        <time>2010-01-01T02:27:41Z</time>
      </trkpt>
      <trkpt lat="37.50831" lon="-8.78952">
        <ele>59</ele>
        <time>2010-01-01T02:27:41Z</time>
      </trkpt>
      <trkpt lat="37.50838" lon="-8.7895">
        <ele>59</ele>
        <time>2010-01-01T02:27:43Z</time>
      </trkpt>
      <trkpt lat="37.50851" lon="-8.78955">
        <ele>60</ele>
        <time>2010-01-01T02:27:47Z</time>
      </trkpt>
      <trkpt lat="37.50856" lon="-8.7896">
        <ele>60</ele>
        <time>2010-01-01T02:27:48Z</time>
      </trkpt>
      <trkpt lat="37.50862" lon="-8.78958">
        <ele>60</ele>
        <time>2010-01-01T02:27:50Z</time>
      </trkpt>
      <trkpt lat="37.50868" lon="-8.78961">
        <ele>60</ele>
        <time>2010-01-01T02:27:52Z</time>
      </trkpt>
      <trkpt lat="37.50878" lon="-8.78972">
        <ele>61</ele>
        <time>2010-01-01T02:27:55Z</time>
      </trkpt>
      <trkpt lat="37.50891" lon="-8.78981">
        <ele>62</ele>
        <time>2010-01-01T02:27:59Z</time>
      </trkpt>
      <trkpt lat="37.50907" lon="-8.78977">
        <ele>62</ele>
        <time>2010-01-01T02:28:04Z</time>
      </trkpt>
      <trkpt lat="37.50921" lon="-8.78967">
        <ele>62</ele>
        <time>2010-01-01T02:28:08Z</time>
      </trkpt>
      <trkpt lat="37.50935" lon="-8.7895">
        <ele>62</ele>
        <time>2010-01-01T02:28:13Z</time>
      </trkpt>
      <trkpt lat="37.50939" lon="-8.78954">
        <ele>62</ele>
        <time>2010-01-01T02:28:15Z</time>
      </trkpt>
      <trkpt lat="37.50946" lon="-8.78942">
        <ele>62</ele>
        <time>2010-01-01T02:28:18Z</time>
      </trkpt>
      <trkpt lat="37.50955" lon="-8.78937">
        <ele>62</ele>
        <time>2010-01-01T02:28:20Z</time>
      </trkpt>
      <trkpt lat="37.50978" lon="-8.78936">
        <ele>62</ele>
        <time>2010-01-01T02:28:27Z</time>
      </trkpt>
      <trkpt lat="37.50998" lon="-8.78941">
        <ele>62</ele>
        <time>2010-01-01T02:28:32Z</time>
      </trkpt>
      <trkpt lat="37.51005" lon="-8.78945">
        <ele>63</ele>
        <time>2010-01-01T02:28:34Z</time>
      </trkpt>
      <trkpt lat="37.5101" lon="-8.78949">
        <ele>63</ele>
        <time>2010-01-01T02:28:36Z</time>
      </trkpt>
      <trkpt lat="37.51016" lon="-8.78953">
        <ele>63</ele>
        <time>2010-01-01T02:28:37Z</time>
      </trkpt>
      <trkpt lat="37.51019" lon="-8.78954">
        <ele>63</ele>
        <time>2010-01-01T02:28:38Z</time>
      </trkpt>
      <trkpt lat="37.51018" lon="-8.78957">
        <ele>63</ele>
        <time>2010-01-01T02:28:39Z</time>
      </trkpt>
      <trkpt lat="37.51023" lon="-8.78957">
        <ele>63</ele>
        <time>2010-01-01T02:28:40Z</time>
      </trkpt>
      <trkpt lat="37.5103" lon="-8.78957">
        <ele>63</ele>
        <time>2010-01-01T02:28:42Z</time>
      </trkpt>
      <trkpt lat="37.51032" lon="-8.78954">
        <ele>63</ele>
        <time>2010-01-01T02:28:43Z</time>
      </trkpt>
      <trkpt lat="37.51035" lon="-8.78949">
        <ele>63</ele>
        <time>2010-01-01T02:28:44Z</time>
      </trkpt>
      <trkpt lat="37.51037" lon="-8.78945">
        <ele>63</ele>
        <time>2010-01-01T02:28:45Z</time>
      </trkpt>
      <trkpt lat="37.51036" lon="-8.78932">
        <ele>62</ele>
        <time>2010-01-01T02:28:48Z</time>
      </trkpt>
      <trkpt lat="37.51038" lon="-8.78921">
        <ele>61</ele>
        <time>2010-01-01T02:28:50Z</time>
      </trkpt>
      <trkpt lat="37.51038" lon="-8.78916">
        <ele>61</ele>
        <time>2010-01-01T02:28:52Z</time>
      </trkpt>
      <trkpt lat="37.51038" lon="-8.78912">
        <ele>61</ele>
        <time>2010-01-01T02:28:52Z</time>
      </trkpt>
      <trkpt lat="37.51037" lon="-8.78904">
        <ele>60</ele>
        <time>2010-01-01T02:28:54Z</time>
      </trkpt>
      <trkpt lat="37.51037" lon="-8.78888">
        <ele>59</ele>
        <time>2010-01-01T02:28:57Z</time>
      </trkpt>
      <trkpt lat="37.51039" lon="-8.78886">
        <ele>59</ele>
        <time>2010-01-01T02:28:58Z</time>
      </trkpt>
      <trkpt lat="37.51039" lon="-8.78884">
        <ele>59</ele>
        <time>2010-01-01T02:28:58Z</time>
      </trkpt>
      <trkpt lat="37.51042" lon="-8.78868">
        <ele>59</ele>
        <time>2010-01-01T02:29:02Z</time>
      </trkpt>
      <trkpt lat="37.5104" lon="-8.78855">
        <ele>59</ele>
        <time>2010-01-01T02:29:05Z</time>
      </trkpt>
      <trkpt lat="37.51044" lon="-8.78839">
        <ele>59</ele>
        <time>2010-01-01T02:29:08Z</time>
      </trkpt>
      <trkpt lat="37.51053" lon="-8.78833">
        <ele>59</ele>
        <time>2010-01-01T02:29:11Z</time>
      </trkpt>
      <trkpt lat="37.51063" lon="-8.78819">
        <ele>59</ele>
        <time>2010-01-01T02:29:15Z</time>
      </trkpt>
      <trkpt lat="37.51063" lon="-8.78806">
        <ele>59</ele>
        <time>2010-01-01T02:29:18Z</time>
      </trkpt>
      <trkpt lat="37.51065" lon="-8.78803">
        <ele>59</ele>
        <time>2010-01-01T02:29:18Z</time>
      </trkpt>
      <trkpt lat="37.51067" lon="-8.78801">
        <ele>59</ele>
        <time>2010-01-01T02:29:19Z</time>
      </trkpt>
      <trkpt lat="37.51076" lon="-8.78797">
        <ele>59</ele>
        <time>2010-01-01T02:29:22Z</time>
      </trkpt>
      <trkpt lat="37.51084" lon="-8.78804">
        <ele>59</ele>
        <time>2010-01-01T02:29:24Z</time>
      </trkpt>
      <trkpt lat="37.51086" lon="-8.78812">
        <ele>59</ele>
        <time>2010-01-01T02:29:26Z</time>
      </trkpt>
      <trkpt lat="37.51087" lon="-8.78812">
        <ele>59</ele>
        <time>2010-01-01T02:29:26Z</time>
      </trkpt>
      <trkpt lat="37.51113" lon="-8.7882">
        <ele>60</ele>
        <time>2010-01-01T02:29:33Z</time>
      </trkpt>
      <trkpt lat="37.51126" lon="-8.78828">
        <ele>60</ele>
        <time>2010-01-01T02:29:37Z</time>
      </trkpt>
      <trkpt lat="37.51138" lon="-8.7883">
        <ele>60</ele>
        <time>2010-01-01T02:29:40Z</time>
      </trkpt>
      <trkpt lat="37.51174" lon="-8.78842">
        <ele>58</ele>
        <time>2010-01-01T02:29:51Z</time>
      </trkpt>
      <trkpt lat="37.51184" lon="-8.78847">
        <ele>57</ele>
        <time>2010-01-01T02:29:53Z</time>
      </trkpt>
      <trkpt lat="37.51218" lon="-8.78862">
        <ele>55</ele>
        <time>2010-01-01T02:30:03Z</time>
      </trkpt>
      <trkpt lat="37.5124" lon="-8.78869">
        <ele>54</ele>
        <time>2010-01-01T02:30:09Z</time>
      </trkpt>
      <trkpt lat="37.51258" lon="-8.78874">
        <ele>54</ele>
        <time>2010-01-01T02:30:14Z</time>
      </trkpt>
      <trkpt lat="37.51269" lon="-8.78876">
        <ele>54</ele>
        <time>2010-01-01T02:30:17Z</time>
      </trkpt>
      <trkpt lat="37.51284" lon="-8.78875">
        <ele>53</ele>
        <time>2010-01-01T02:30:21Z</time>
      </trkpt>
      <trkpt lat="37.51291" lon="-8.78879">
        <ele>52</ele>
        <time>2010-01-01T02:30:23Z</time>
      </trkpt>
      <trkpt lat="37.51302" lon="-8.7888">
        <ele>51</ele>
        <time>2010-01-01T02:30:26Z</time>
      </trkpt>
      <trkpt lat="37.51317" lon="-8.78886">
        <ele>50</ele>
        <time>2010-01-01T02:30:30Z</time>
      </trkpt>
      <trkpt lat="37.51331" lon="-8.78891">
        <ele>49</ele>
        <time>2010-01-01T02:30:34Z</time>
      </trkpt>
      <trkpt lat="37.51342" lon="-8.78897">
        <ele>49</ele>
        <time>2010-01-01T02:30:37Z</time>
      </trkpt>
      <trkpt lat="37.51361" lon="-8.78898">
        <ele>48</ele>
        <time>2010-01-01T02:30:42Z</time>
      </trkpt>
      <trkpt lat="37.51367" lon="-8.789">
        <ele>48</ele>
        <time>2010-01-01T02:30:44Z</time>
      </trkpt>
      <trkpt lat="37.51389" lon="-8.78912">
        <ele>48</ele>
        <time>2010-01-01T02:30:50Z</time>
      </trkpt>
      <trkpt lat="37.51405" lon="-8.7892">
        <ele>47</ele>
        <time>2010-01-01T02:30:55Z</time>
      </trkpt>
      <trkpt lat="37.5142" lon="-8.78923">
        <ele>46</ele>
        <time>2010-01-01T02:30:59Z</time>
      </trkpt>
      <trkpt lat="37.51438" lon="-8.78932">
        <ele>42</ele>
        <time>2010-01-01T02:31:04Z</time>
      </trkpt>
      <trkpt lat="37.51443" lon="-8.78932">
        <ele>41</ele>
        <time>2010-01-01T02:31:06Z</time>
      </trkpt>
      <trkpt lat="37.51447" lon="-8.78939">
        <ele>39</ele>
        <time>2010-01-01T02:31:07Z</time>
      </trkpt>
      <trkpt lat="37.51466" lon="-8.78935">
        <ele>39</ele>
        <time>2010-01-01T02:31:13Z</time>
      </trkpt>
      <trkpt lat="37.51476" lon="-8.78934">
        <ele>38</ele>
        <time>2010-01-01T02:31:15Z</time>
      </trkpt>
      <trkpt lat="37.51486" lon="-8.78932">
        <ele>38</ele>
        <time>2010-01-01T02:31:18Z</time>
      </trkpt>
      <trkpt lat="37.51508" lon="-8.78917">
        <ele>43</ele>
        <time>2010-01-01T02:31:24Z</time>
      </trkpt>
      <trkpt lat="37.51529" lon="-8.78895">
        <ele>47</ele>
        <time>2010-01-01T02:31:32Z</time>
      </trkpt>
      <trkpt lat="37.51566" lon="-8.7888">
        <ele>45</ele>
        <time>2010-01-01T02:31:42Z</time>
      </trkpt>
      <trkpt lat="37.51578" lon="-8.78882">
        <ele>44</ele>
        <time>2010-01-01T02:31:45Z</time>
      </trkpt>
      <trkpt lat="37.51593" lon="-8.78896">
        <ele>43</ele>
        <time>2010-01-01T02:31:50Z</time>
      </trkpt>
      <trkpt lat="37.51594" lon="-8.78896">
        <ele>43</ele>
        <time>2010-01-01T02:31:51Z</time>
      </trkpt>
      <trkpt lat="37.51604" lon="-8.78913">
        <ele>42</ele>
        <time>2010-01-01T02:31:55Z</time>
      </trkpt>
      <trkpt lat="37.51607" lon="-8.78917">
        <ele>42</ele>
        <time>2010-01-01T02:31:56Z</time>
      </trkpt>
      <trkpt lat="37.51615" lon="-8.78932">
        <ele>39</ele>
        <time>2010-01-01T02:32:00Z</time>
      </trkpt>
      <trkpt lat="37.51618" lon="-8.78934">
        <ele>39</ele>
        <time>2010-01-01T02:32:01Z</time>
      </trkpt>
      <trkpt lat="37.51616" lon="-8.78934">
        <ele>39</ele>
        <time>2010-01-01T02:32:01Z</time>
      </trkpt>
      <trkpt lat="37.51617" lon="-8.78938">
        <ele>38</ele>
        <time>2010-01-01T02:32:02Z</time>
      </trkpt>
      <trkpt lat="37.51641" lon="-8.78934">
        <ele>36</ele>
        <time>2010-01-01T02:32:09Z</time>
      </trkpt>
      <trkpt lat="37.51661" lon="-8.78925">
        <ele>36</ele>
        <time>2010-01-01T02:32:15Z</time>
      </trkpt>
      <trkpt lat="37.5169" lon="-8.78908">
        <ele>35</ele>
        <time>2010-01-01T02:32:23Z</time>
      </trkpt>
      <trkpt lat="37.51703" lon="-8.78898">
        <ele>34</ele>
        <time>2010-01-01T02:32:27Z</time>
      </trkpt>
      <trkpt lat="37.51731" lon="-8.78876">
        <ele>31</ele>
        <time>2010-01-01T02:32:36Z</time>
      </trkpt>
      <trkpt lat="37.51734" lon="-8.78872">
        <ele>31</ele>
        <time>2010-01-01T02:32:37Z</time>
      </trkpt>
      <trkpt lat="37.5174" lon="-8.78864">
        <ele>31</ele>
        <time>2010-01-01T02:32:39Z</time>
      </trkpt>
      <trkpt lat="37.51753" lon="-8.78844">
        <ele>30</ele>
        <time>2010-01-01T02:32:45Z</time>
      </trkpt>
      <trkpt lat="37.5176" lon="-8.78835">
        <ele>29</ele>
        <time>2010-01-01T02:32:48Z</time>
      </trkpt>
      <trkpt lat="37.5177" lon="-8.78833">
        <ele>25</ele>
        <time>2010-01-01T02:32:50Z</time>
      </trkpt>
      <trkpt lat="37.51776" lon="-8.78832">
        <ele>23</ele>
        <time>2010-01-01T02:32:52Z</time>
      </trkpt>
      <trkpt lat="37.5178" lon="-8.78828">
        <ele>23</ele>
        <time>2010-01-01T02:32:53Z</time>
      </trkpt>
      <trkpt lat="37.51783" lon="-8.78824">
        <ele>23</ele>
        <time>2010-01-01T02:32:54Z</time>
      </trkpt>
      <trkpt lat="37.51792" lon="-8.78824">
        <ele>21</ele>
        <time>2010-01-01T02:32:57Z</time>
      </trkpt>
      <trkpt lat="37.518" lon="-8.78829">
        <ele>18</ele>
        <time>2010-01-01T02:32:59Z</time>
      </trkpt>
      <trkpt lat="37.51809" lon="-8.78827">
        <ele>16</ele>
        <time>2010-01-01T02:33:01Z</time>
      </trkpt>
      <trkpt lat="37.51814" lon="-8.78825">
        <ele>15</ele>
        <time>2010-01-01T02:33:03Z</time>
      </trkpt>
      <trkpt lat="37.51814" lon="-8.78817">
        <ele>18</ele>
        <time>2010-01-01T02:33:05Z</time>
      </trkpt>
      <trkpt lat="37.51821" lon="-8.78813">
        <ele>18</ele>
        <time>2010-01-01T02:33:07Z</time>
      </trkpt>
      <trkpt lat="37.51825" lon="-8.7881">
        <ele>18</ele>
        <time>2010-01-01T02:33:08Z</time>
      </trkpt>
      <trkpt lat="37.51834" lon="-8.7881">
        <ele>17</ele>
        <time>2010-01-01T02:33:10Z</time>
      </trkpt>
      <trkpt lat="37.51837" lon="-8.78807">
        <ele>18</ele>
        <time>2010-01-01T02:33:11Z</time>
      </trkpt>
      <trkpt lat="37.51835" lon="-8.78801">
        <ele>19</ele>
        <time>2010-01-01T02:33:13Z</time>
      </trkpt>
      <trkpt lat="37.51834" lon="-8.78796">
        <ele>21</ele>
        <time>2010-01-01T02:33:14Z</time>
      </trkpt>
      <trkpt lat="37.51842" lon="-8.78791">
        <ele>22</ele>
        <time>2010-01-01T02:33:16Z</time>
      </trkpt>
      <trkpt lat="37.51842" lon="-8.78783">
        <ele>24</ele>
        <time>2010-01-01T02:33:18Z</time>
      </trkpt>
      <trkpt lat="37.51827" lon="-8.78758">
        <ele>29</ele>
        <time>2010-01-01T02:33:24Z</time>
      </trkpt>
      <trkpt lat="37.51833" lon="-8.78753">
        <ele>30</ele>
        <time>2010-01-01T02:33:26Z</time>
      </trkpt>
      <trkpt lat="37.51846" lon="-8.7874">
        <ele>33</ele>
        <time>2010-01-01T02:33:31Z</time>
      </trkpt>
      <trkpt lat="37.51851" lon="-8.78747">
        <ele>33</ele>
        <time>2010-01-01T02:33:33Z</time>
      </trkpt>
      <trkpt lat="37.51858" lon="-8.78757">
        <ele>31</ele>
        <time>2010-01-01T02:33:35Z</time>
      </trkpt>
      <trkpt lat="37.5187" lon="-8.78767">
        <ele>27</ele>
        <time>2010-01-01T02:33:39Z</time>
      </trkpt>
      <trkpt lat="37.51886" lon="-8.78771">
        <ele>25</ele>
        <time>2010-01-01T02:33:44Z</time>
      </trkpt>
      <trkpt lat="37.51895" lon="-8.78774">
        <ele>23</ele>
        <time>2010-01-01T02:33:46Z</time>
      </trkpt>
      <trkpt lat="37.51902" lon="-8.78784">
        <ele>20</ele>
        <time>2010-01-01T02:33:49Z</time>
      </trkpt>
      <trkpt lat="37.51968" lon="-8.78782">
        <ele>27</ele>
        <time>2010-01-01T02:34:06Z</time>
      </trkpt>
      <trkpt lat="37.5202" lon="-8.788">
        <ele>30</ele>
        <time>2010-01-01T02:34:21Z</time>
      </trkpt>
      <trkpt lat="37.52056" lon="-8.78764">
        <ele>36</ele>
        <time>2010-01-01T02:34:33Z</time>
      </trkpt>
      <trkpt lat="37.52087" lon="-8.78721">
        <ele>33</ele>
        <time>2010-01-01T02:34:45Z</time>
      </trkpt>
      <trkpt lat="37.52172" lon="-8.78675">
        <ele>14</ele>
        <time>2010-01-01T02:35:10Z</time>
      </trkpt>
      <trkpt lat="37.52194" lon="-8.78644">
        <ele>7</ele>
        <time>2010-01-01T02:35:19Z</time>
      </trkpt>
      <trkpt lat="37.52275" lon="-8.78588">
        <ele>16</ele>
        <time>2010-01-01T02:35:44Z</time>
      </trkpt>
      <trkpt lat="37.52299" lon="-8.78672">
        <ele>10</ele>
        <time>2010-01-01T02:36:03Z</time>
      </trkpt>
      <trkpt lat="37.52313" lon="-8.78661">
        <ele>15</ele>
        <time>2010-01-01T02:36:07Z</time>
      </trkpt>
      <trkpt lat="37.5233" lon="-8.7864">
        <ele>22</ele>
        <time>2010-01-01T02:36:13Z</time>
      </trkpt>
      <trkpt lat="37.52365" lon="-8.78632">
        <ele>25</ele>
        <time>2010-01-01T02:36:23Z</time>
      </trkpt>
      <trkpt lat="37.52378" lon="-8.78631">
        <ele>26</ele>
        <time>2010-01-01T02:36:26Z</time>
      </trkpt>
      <trkpt lat="37.52409" lon="-8.78635">
        <ele>28</ele>
        <time>2010-01-01T02:36:35Z</time>
      </trkpt>
      <trkpt lat="37.52429" lon="-8.78614">
        <ele>32</ele>
        <time>2010-01-01T02:36:42Z</time>
      </trkpt>
      <trkpt lat="37.5243" lon="-8.7858">
        <ele>37</ele>
        <time>2010-01-01T02:36:49Z</time>
      </trkpt>
      <trkpt lat="37.52445" lon="-8.78384">
        <ele>39</ele>
        <time>2010-01-01T02:37:30Z</time>
      </trkpt>
    </trkseg>
  </trk>
</gpx>